Terminal Aerodrome Forecast
Issued by NWS

Home | Current Version | Previous Version | Text Only | Print | Product List | Glossary On
Versions: 1 2 3 4 5 6 7 8 9 10 11 12 13 14 15 16
000
FTPA31 PHFO 261134
TAFHOG
TAF
PHOG 261134Z 2612/2712 05010KT P6SM SCT015 SCT050
     FM261800 04014G24KT P6SM FEW030 SCT050
     FM262300 04018G26KT P6SM FEW030 SCT050
     FM270500 04011G15KT P6SM FEW030 SCT050
     FM271000 05010KT P6SM FEW030 SCT050
      AMD LTD TO VIS AND WIND TIL 261600=

USA.gov is the U.S. government's official web portal to all federal, state and local government web resources and services.